Time;durP1;ratioP1;P1;durP2;ratioP2;P2;SDS_P1;SDS_P2;PMS_P1;PMS_P2;Temp;Humidity;BMP_temperature;BMP_pressure;BME280_temperature;BME280_humidity;BME280_pressure;Samples;Min_cycle;Max_cycle;Signal;HPM_P1;HPM_P2
2022/03/18 00:02:21;;;;;;;7.57;3.83;;;;;;;5.58;83.00;102034.50;5059975;28;20548;-62
2022/03/18 00:04:47;;;;;;;5.87;3.40;;;;;;;5.52;83.16;102045.59;5064997;28;20188;-61
2022/03/18 00:07:13;;;;;;;13.95;4.85;;;;;;;5.53;83.11;102039.59;5058818;28;20500;-62
2022/03/18 00:09:41;;;;;;;8.33;3.83;;;;;;;5.50;83.45;102039.63;5064500;28;20650;-61
2022/03/18 00:12:08;;;;;;;9.97;3.60;;;;;;;5.47;83.68;102039.63;5077549;28;20378;-63
2022/03/18 00:14:34;;;;;;;11.97;3.50;;;;;;;5.44;83.81;102035.38;5072141;28;20171;-60
2022/03/18 00:16:59;;;;;;;10.67;4.00;;;;;;;5.48;84.32;102039.63;5064913;28;20232;-61
2022/03/18 00:19:27;;;;;;;12.63;3.57;;;;;;;5.44;84.49;102037.09;5088570;28;20211;-62
2022/03/18 00:22:00;;;;;;;8.80;3.90;;;;;;;5.47;84.25;102052.38;5060608;28;20561;-61
2022/03/18 00:24:25;;;;;;;10.10;4.00;;;;;;;5.41;84.61;102044.72;5071636;28;20585;-62
2022/03/18 00:26:51;;;;;;;9.93;4.23;;;;;;;5.47;84.31;102047.28;5071886;28;20197;-60
2022/03/18 00:29:16;;;;;;;13.43;3.90;;;;;;;5.42;85.19;102041.34;5073068;28;20521;-62
2022/03/18 00:31:41;;;;;;;12.63;4.30;;;;;;;5.41;84.69;102037.94;5053366;28;20227;-61
2022/03/18 00:34:06;;;;;;;12.03;4.33;;;;;;;5.39;84.97;102046.47;5071981;28;20177;-60
2022/03/18 00:36:32;;;;;;;11.43;4.47;;;;;;;5.33;85.42;102043.06;5071088;28;20207;-62
2022/03/18 00:38:57;;;;;;;12.83;4.10;;;;;;;5.43;84.76;102045.59;5062616;28;20693;-61
2022/03/18 00:41:24;;;;;;;8.07;3.70;;;;;;;5.42;84.90;102042.19;5063323;28;20231;-61
2022/03/18 00:43:52;;;;;;;13.83;4.87;;;;;;;5.42;85.01;102052.41;5062938;28;20597;-62
2022/03/18 00:46:20;;;;;;;13.40;4.90;;;;;;;5.40;85.28;102053.28;5051561;28;20339;-61
2022/03/18 00:54:14;;;;;;;13.90;4.77;;;;;;;5.33;85.84;102043.06;5076604;28;20179;-63
2022/03/18 00:56:39;;;;;;;12.50;4.70;;;;;;;5.34;86.11;102042.19;5072618;28;20180;-60
2022/03/18 00:59:04;;;;;;;9.23;4.23;;;;;;;5.31;86.18;102041.38;5072607;28;20209;-61
2022/03/18 01:01:30;;;;;;;10.60;3.90;;;;;;;5.29;86.43;102043.06;5073077;28;20690;-61
2022/03/18 01:03:55;;;;;;;11.97;4.57;;;;;;;5.30;86.28;102042.22;5054373;28;20696;-60
2022/03/18 01:06:21;;;;;;;13.23;4.50;;;;;;;5.25;86.65;102044.78;5072692;28;20165;-60
2022/03/18 01:08:46;;;;;;;9.33;4.10;;;;;;;5.22;87.09;102049.03;5072285;28;20174;-61
2022/03/18 01:11:11;;;;;;;11.03;4.03;;;;;;;5.20;87.01;102041.38;5067408;28;20220;-61
2022/03/18 01:13:37;;;;;;;10.43;4.80;;;;;;;5.22;87.05;102049.03;5070910;28;20687;-60
2022/03/18 01:16:02;;;;;;;10.23;4.90;;;;;;;5.15;87.64;102050.75;5067148;28;20686;-60
2022/03/18 01:18:27;;;;;;;10.70;4.23;;;;;;;5.11;87.94;102056.69;5056213;28;20185;-59
2022/03/18 01:20:53;;;;;;;11.47;5.10;;;;;;;5.09;88.22;102050.75;5070171;28;20250;-60
2022/03/18 01:23:18;;;;;;;10.70;4.00;;;;;;;5.13;88.15;102053.28;5080475;28;20199;-60
2022/03/18 01:25:43;;;;;;;10.10;4.67;;;;;;;5.09;88.38;102056.69;5072166;28;20252;-61
2022/03/18 01:28:08;;;;;;;8.87;5.23;;;;;;;5.11;88.58;102055.00;5071863;28;20189;-61
2022/03/18 01:30:34;;;;;;;9.33;4.87;;;;;;;5.11;88.84;102051.56;5070012;28;20222;-61
2022/03/18 01:33:02;;;;;;;9.53;4.07;;;;;;;5.05;88.86;102049.03;5095260;28;20188;-60
2022/03/18 01:35:28;;;;;;;12.27;4.07;;;;;;;5.03;89.22;102053.28;5062385;28;20267;-60
2022/03/18 01:37:54;;;;;;;9.73;4.57;;;;;;;4.99;89.78;102050.72;5049674;28;20200;-61
2022/03/18 01:40:20;;;;;;;18.67;4.47;;;;;;;5.05;89.50;102055.00;5044602;28;20169;-60
2022/03/18 01:42:45;;;;;;;12.10;5.07;;;;;;;5.05;89.26;102059.22;5092815;28;20181;-61
2022/03/18 01:45:11;;;;;;;11.87;5.43;;;;;;;5.06;89.38;102050.72;5071255;28;20169;-61
2022/03/18 01:47:42;;;;;;;11.03;5.77;;;;;;;5.06;89.66;102053.28;5071211;28;20515;-61
2022/03/18 01:50:13;;;;;;;12.93;5.23;;;;;;;4.97;90.39;102056.69;5060265;28;20179;-60
2022/03/18 01:52:39;;;;;;;16.03;5.47;;;;;;;5.01;90.44;102061.78;5084354;28;20190;-60
2022/03/18 01:55:06;;;;;;;12.67;6.27;;;;;;;5.06;90.10;102056.69;5069647;28;20614;-62
2022/03/18 01:57:31;;;;;;;11.77;5.23;;;;;;;5.01;90.04;102056.69;5069518;28;20234;-61
2022/03/18 01:59:57;;;;;;;9.80;4.93;;;;;;;5.01;90.77;102063.47;5070494;28;20568;-60
2022/03/18 02:02:23;;;;;;;17.33;5.93;;;;;;;4.99;90.72;102057.53;5076016;28;20535;-60
2022/03/18 02:04:48;;;;;;;19.03;5.83;;;;;;;4.97;90.83;102056.69;5071004;28;20240;-64
2022/03/18 02:07:15;;;;;;;14.83;5.60;;;;;;;4.92;91.19;102061.78;5070997;28;20596;-61
2022/03/18 02:09:40;;;;;;;11.23;5.57;;;;;;;4.93;91.24;102060.09;5069487;28;20172;-60
2022/03/18 02:12:07;;;;;;;13.00;5.93;;;;;;;4.93;91.40;102063.47;5068683;28;20707;-60
2022/03/18 02:14:42;;;;;;;13.60;5.90;;;;;;;4.96;91.07;102066.06;5059001;28;20169;-60
2022/03/18 02:17:11;;;;;;;14.60;6.13;;;;;;;4.94;91.49;102072.00;5048273;28;20168;-60
2022/03/18 02:19:37;;;;;;;8.27;5.50;;;;;;;5.10;91.00;102070.31;5049557;28;20169;-60
2022/03/18 02:22:10;;;;;;;11.97;5.87;;;;;;;4.96;91.37;102072.84;5062069;28;20229;-59
2022/03/18 02:24:38;;;;;;;13.07;6.10;;;;;;;5.01;91.20;102072.00;5082843;28;20205;-60
2022/03/18 02:27:03;;;;;;;10.13;6.17;;;;;;;5.04;91.62;102072.88;5049237;28;20300;-60
2022/03/18 02:29:29;;;;;;;13.67;5.33;;;;;;;4.99;91.15;102073.69;5050756;28;20615;-61
2022/03/18 02:31:54;;;;;;;16.87;5.97;;;;;;;5.03;91.38;102082.19;5054441;28;20219;-61
2022/03/18 02:34:23;;;;;;;8.33;5.23;;;;;;;4.97;91.68;102082.19;5060113;28;20177;-60
2022/03/18 02:36:48;;;;;;;9.97;5.00;;;;;;;5.00;91.39;102070.28;5070887;28;20222;-59
2022/03/18 02:39:14;;;;;;;9.27;4.87;;;;;;;4.90;91.87;102076.25;5052672;28;20188;-59
2022/03/18 02:41:39;;;;;;;11.93;5.23;;;;;;;4.87;92.62;102073.69;5072471;28;20325;-60
2022/03/18 02:44:05;;;;;;;11.20;5.03;;;;;;;4.94;92.30;102072.00;5067058;28;20635;-60
2022/03/18 02:46:32;;;;;;;11.13;4.83;;;;;;;4.77;92.60;102075.38;5050878;28;20537;-60
2022/03/18 02:49:02;;;;;;;12.17;5.73;;;;;;;4.91;92.71;102071.97;5050339;28;20664;-60
2022/03/18 02:51:29;;;;;;;11.70;5.30;;;;;;;4.84;92.49;102071.13;5043434;28;20243;-60
2022/03/18 02:53:56;;;;;;;10.57;5.70;;;;;;;4.89;92.57;102076.22;5054273;28;20181;-59
2022/03/18 02:56:22;;;;;;;19.47;4.97;;;;;;;5.00;91.87;102069.47;5052815;28;20173;-59
2022/03/18 02:58:47;;;;;;;19.03;6.33;;;;;;;4.91;91.87;102074.53;5058814;28;20219;-59
2022/03/18 03:01:12;;;;;;;14.67;5.83;;;;;;;4.84;92.19;102076.25;5072262;28;20239;-63
2022/03/18 03:03:37;;;;;;;14.40;5.80;;;;;;;4.80;92.12;102079.63;5081259;28;20168;-60
2022/03/18 03:08:47;;;;;;;8.87;5.00;;;;;;;4.98;91.98;102089.84;5074667;28;20635;-59
2022/03/18 03:11:12;;;;;;;16.20;5.47;;;;;;;4.97;91.32;102092.41;5072320;28;20262;-60
2022/03/18 03:13:37;;;;;;;10.67;4.80;;;;;;;5.08;90.66;102088.13;5080931;28;20548;-59
2022/03/18 03:16:04;;;;;;;9.50;4.63;;;;;;;5.10;90.32;102093.28;5074081;28;20284;-59
2022/03/18 03:18:29;;;;;;;11.03;5.33;;;;;;;4.94;90.60;102095.78;5072833;28;20200;-63
2022/03/18 03:20:57;;;;;;;15.10;5.80;;;;;;;4.87;91.25;102098.34;5045669;28;20560;-60
2022/03/18 03:23:26;;;;;;;11.10;4.90;;;;;;;4.93;91.43;102098.34;5073077;28;20642;-59
2022/03/18 03:25:56;;;;;;;11.40;4.93;;;;;;;4.97;91.06;102105.16;5073002;28;20218;-59
2022/03/18 03:28:22;;;;;;;13.67;5.50;;;;;;;5.06;90.89;102109.41;5074315;28;20177;-63
2022/03/18 03:30:48;;;;;;;9.87;5.43;;;;;;;4.95;91.59;102106.84;5062244;28;20227;-63
2022/03/18 03:33:14;;;;;;;12.47;5.00;;;;;;;4.98;91.64;102111.94;5080462;28;20204;-60
2022/03/18 03:35:39;;;;;;;8.27;5.10;;;;;;;4.84;91.82;102112.78;5074036;28;20180;-61
2022/03/18 03:38:05;;;;;;;7.97;5.00;;;;;;;4.78;92.17;102119.56;5073899;28;20210;-60
2022/03/18 03:40:32;;;;;;;11.97;5.40;;;;;;;4.75;92.90;102122.09;5069640;28;20288;-60
2022/03/18 03:42:57;;;;;;;13.90;5.80;;;;;;;4.79;92.87;102123.84;5097731;28;20231;-59
2022/03/18 03:45:23;;;;;;;12.17;4.63;;;;;;;4.66;92.79;102128.03;5074282;28;20615;-59
2022/03/18 03:47:48;;;;;;;12.60;5.50;;;;;;;4.64;92.49;102130.59;5072365;28;20173;-59
2022/03/18 03:50:15;;;;;;;8.63;4.97;;;;;;;4.71;92.60;102136.53;5065127;27;20168;-61
2022/03/18 03:52:41;;;;;;;8.17;4.27;;;;;;;4.67;92.81;102137.38;5102333;28;20199;-60
2022/03/18 03:55:08;;;;;;;12.27;4.97;;;;;;;4.62;92.64;102136.53;5074031;28;20537;-60
2022/03/18 03:57:33;;;;;;;9.50;4.60;;;;;;;4.69;92.45;102140.81;5072516;28;20263;-60
2022/03/18 03:59:59;;;;;;;7.57;4.17;;;;;;;4.71;92.27;102144.19;5073466;28;20263;-60
2022/03/18 04:02:27;;;;;;;10.10;4.70;;;;;;;4.62;92.17;102149.28;5051201;28;20721;-60
2022/03/18 04:04:52;;;;;;;11.30;5.17;;;;;;;4.60;92.09;102149.28;5073107;28;20169;-60
2022/03/18 04:07:18;;;;;;;10.87;5.90;;;;;;;4.73;91.70;102157.81;5072450;28;20175;-60
2022/03/18 04:09:44;;;;;;;10.93;4.57;;;;;;;4.71;91.33;102161.19;5072373;28;20173;-60
2022/03/18 04:12:09;;;;;;;15.47;4.47;;;;;;;4.68;91.53;102157.78;5077684;28;20231;-59
2022/03/18 04:14:35;;;;;;;8.47;5.00;;;;;;;4.62;91.28;102172.22;5073396;28;20193;-59
2022/03/18 04:17:02;;;;;;;10.73;5.03;;;;;;;4.64;91.17;102167.97;5078513;28;20225;-60
2022/03/18 04:19:28;;;;;;;8.03;4.90;;;;;;;4.69;90.82;102171.41;5073483;28;20171;-59
2022/03/18 04:21:53;;;;;;;11.80;4.70;;;;;;;4.76;90.32;102172.25;5062378;28;20580;-59
2022/03/18 04:24:18;;;;;;;11.50;4.80;;;;;;;4.70;90.16;102178.19;5073733;28;20181;-59
2022/03/18 04:26:43;;;;;;;12.27;4.87;;;;;;;4.74;90.03;102179.91;5072583;28;20524;-59
2022/03/18 04:29:10;;;;;;;8.93;5.00;;;;;;;4.73;90.14;102188.41;5064442;28;20188;-60
2022/03/18 04:31:36;;;;;;;9.87;5.67;;;;;;;4.66;89.97;102196.88;5024034;28;20233;-59
2022/03/18 04:34:01;;;;;;;11.30;5.10;;;;;;;4.67;90.11;102199.41;5057001;28;20559;-61
2022/03/18 04:36:26;;;;;;;13.47;4.60;;;;;;;4.62;89.84;102197.72;5052023;28;20171;-61
2022/03/18 04:38:52;;;;;;;12.47;4.77;;;;;;;4.71;89.58;102194.34;5053621;28;20161;-62
2022/03/18 04:41:17;;;;;;;12.77;5.27;;;;;;;4.70;89.53;102201.13;5052760;28;20217;-61
2022/03/18 04:43:43;;;;;;;9.60;5.50;;;;;;;4.74;89.54;102202.84;5035279;28;20616;-60
2022/03/18 04:46:08;;;;;;;10.17;4.70;;;;;;;4.67;88.85;102207.06;5052450;28;20754;-60
2022/03/18 04:48:33;;;;;;;14.43;5.50;;;;;;;4.66;88.87;102209.63;5052321;28;20207;-59
2022/03/18 04:50:59;;;;;;;9.47;4.87;;;;;;;4.62;89.00;102207.91;5049210;28;20309;-59
2022/03/18 04:53:24;;;;;;;13.43;5.37;;;;;;;4.67;88.91;102208.78;5077670;28;20254;-61
2022/03/18 04:55:49;;;;;;;12.33;4.83;;;;;;;4.56;89.15;102216.38;5072169;28;20175;-60
2022/03/18 04:58:14;;;;;;;12.40;5.27;;;;;;;4.64;89.21;102209.63;5070761;28;20233;-59
2022/03/18 05:00:40;;;;;;;9.43;5.13;;;;;;;4.62;88.74;102213.84;5067032;28;20215;-60
2022/03/18 05:03:05;;;;;;;12.63;4.90;;;;;;;4.53;88.81;102212.09;5082644;28;20180;-60
2022/03/18 05:05:32;;;;;;;12.03;5.17;;;;;;;4.53;89.03;102212.09;5072159;28;20173;-62
2022/03/18 05:07:57;;;;;;;12.97;4.47;;;;;;;4.56;88.59;102224.00;5070442;28;20233;-61
2022/03/18 05:10:22;;;;;;;11.77;5.33;;;;;;;4.46;88.58;102227.38;5064485;28;20208;-60
2022/03/18 05:12:48;;;;;;;11.87;5.23;;;;;;;4.48;88.92;102226.53;5084470;28;20326;-60
2022/03/18 05:15:13;;;;;;;10.27;4.43;;;;;;;4.55;87.00;102229.94;5071809;28;20200;-61
2022/03/18 05:17:40;;;;;;;7.80;4.80;;;;;;;4.48;87.23;102223.16;5071282;28;20267;-60
2022/03/18 05:20:08;;;;;;;12.73;4.43;;;;;;;4.51;87.18;102233.34;5062212;28;20171;-60
2022/03/18 05:22:34;;;;;;;16.70;4.37;;;;;;;4.47;86.83;102236.72;5070126;28;20165;-59
2022/03/18 05:25:00;;;;;;;11.23;5.47;;;;;;;4.52;86.78;102237.59;5067957;28;20188;-60
2022/03/18 05:27:26;;;;;;;11.23;4.53;;;;;;;4.44;87.30;102244.34;5061886;28;20272;-60
2022/03/18 05:29:51;;;;;;;9.87;4.47;;;;;;;4.57;86.88;102245.28;5071878;28;20168;-60
2022/03/18 05:32:18;;;;;;;9.53;4.20;;;;;;;4.49;85.48;102253.72;5076450;28;20220;-61
2022/03/18 05:34:43;;;;;;;9.70;4.43;;;;;;;4.45;85.22;102261.34;5070854;28;20177;-60
2022/03/18 05:37:10;;;;;;;11.23;4.50;;;;;;;4.36;84.92;102259.59;5072134;28;20200;-60
2022/03/18 05:39:36;;;;;;;9.67;4.43;;;;;;;4.48;83.75;102262.22;5070114;28;20192;-60
2022/03/18 05:42:01;;;;;;;8.20;3.20;;;;;;;4.47;82.68;102273.25;5062748;28;20608;-60
2022/03/18 05:44:27;;;;;;;8.83;3.83;;;;;;;4.59;81.83;102276.69;5071790;28;20169;-60
2022/03/18 05:46:52;;;;;;;10.03;4.57;;;;;;;4.53;81.46;102283.47;5064989;28;20169;-60
2022/03/18 05:49:18;;;;;;;14.80;4.27;;;;;;;4.55;80.67;102280.09;5071866;28;20177;-60
2022/03/18 05:51:45;;;;;;;9.23;3.67;;;;;;;4.58;80.01;102283.50;5058929;28;20221;-60
2022/03/18 05:54:10;;;;;;;8.10;3.37;;;;;;;4.53;79.43;102286.03;5067657;28;20255;-60
2022/03/18 05:56:54;;;;;;;11.30;3.33;;;;;;;4.61;78.82;102298.81;5070207;28;20199;-60
2022/03/18 05:59:25;;;;;;;10.50;3.50;;;;;;;4.65;78.05;102300.56;5071382;28;20191;-61
2022/03/18 06:01:51;;;;;;;10.53;3.87;;;;;;;4.70;78.35;102300.56;5061832;28;20231;-60
2022/03/18 06:04:17;;;;;;;9.87;3.80;;;;;;;4.71;77.78;102293.78;5070413;28;20623;-62
2022/03/18 06:06:44;;;;;;;11.93;3.53;;;;;;;4.77;77.01;102301.47;5070308;28;20179;-60
2022/03/18 06:11:57;;;;;;;7.77;3.33;;;;;;;4.90;76.52;102302.34;5073965;28;20250;-59
2022/03/18 06:14:25;;;;;;;9.93;3.50;;;;;;;4.93;76.63;102300.66;5070228;28;20599;-59
2022/03/18 06:16:53;;;;;;;10.53;3.77;;;;;;;4.97;76.37;102299.00;5069790;28;20223;-60
2022/03/18 06:19:20;;;;;;;7.00;3.27;;;;;;;5.03;76.31;102303.28;5071297;28;20670;-59
2022/03/18 06:21:47;;;;;;;12.40;3.30;;;;;;;5.03;76.63;102316.03;5061105;28;20299;-60
2022/03/18 06:24:13;;;;;;;10.93;3.60;;;;;;;5.07;76.66;102310.94;5057875;28;20630;-59
2022/03/18 06:26:39;;;;;;;8.10;3.73;;;;;;;5.09;76.92;102318.59;5071079;28;20180;-60
2022/03/18 06:29:05;;;;;;;11.77;4.07;;;;;;;5.12;77.45;102324.56;5072744;28;20180;-59
2022/03/18 06:31:31;;;;;;;10.97;4.40;;;;;;;5.18;77.43;102328.84;5078467;28;20237;-60
2022/03/18 06:33:57;;;;;;;7.23;3.87;;;;;;;5.21;77.62;102333.09;5058015;28;20172;-59
2022/03/18 06:36:22;;;;;;;8.67;3.70;;;;;;;5.23;78.08;102332.25;5053874;28;20682;-60
2022/03/18 06:38:48;;;;;;;9.07;4.03;;;;;;;5.23;77.60;102336.50;5056745;28;20179;-60
2022/03/18 06:41:15;;;;;;;10.83;3.60;;;;;;;5.26;77.76;102339.06;5062796;28;20538;-60
2022/03/18 06:43:40;;;;;;;8.60;3.70;;;;;;;5.35;77.58;102346.78;5059917;28;20178;-60
2022/03/18 06:46:05;;;;;;;9.17;3.87;;;;;;;5.37;77.62;102357.84;5055131;28;20176;-60
2022/03/18 06:48:30;;;;;;;10.70;3.80;;;;;;;5.36;78.06;102363.78;5055492;28;20511;-59
2022/03/18 06:50:56;;;;;;;10.50;4.07;;;;;;;5.40;78.28;102364.66;5059013;28;20234;-60
2022/03/18 06:53:21;;;;;;;12.10;3.83;;;;;;;5.47;78.02;102364.69;5079281;28;20195;-61
2022/03/18 06:55:46;;;;;;;10.03;4.97;;;;;;;5.50;78.14;102358.72;5061182;28;20182;-60
2022/03/18 06:58:12;;;;;;;11.60;4.60;;;;;;;5.52;78.50;102362.16;5057485;28;20182;-60
2022/03/18 07:00:39;;;;;;;11.27;4.13;;;;;;;5.53;77.88;102362.97;5056479;28;20609;-60
2022/03/18 07:03:06;;;;;;;10.17;4.60;;;;;;;5.55;78.46;102369.78;5081788;28;20176;-60
2022/03/18 07:05:32;;;;;;;11.17;4.83;;;;;;;5.65;77.70;102373.22;5058790;28;20272;-60
2022/03/18 07:07:57;;;;;;;11.03;5.00;;;;;;;5.75;77.65;102377.50;5068997;28;20172;-60
2022/03/18 07:10:23;;;;;;;14.67;5.70;;;;;;;5.70;77.66;102384.31;5048911;28;20236;-61
2022/03/18 07:12:48;;;;;;;14.73;5.07;;;;;;;5.72;77.27;102380.06;5082772;28;20233;-60
2022/03/18 07:15:13;;;;;;;14.00;5.77;;;;;;;5.73;77.37;102379.22;5054272;28;20538;-60
2022/03/18 07:20:23;;;;;;;12.53;6.00;;;;;;;5.80;76.51;102382.63;5054305;28;20599;-61
2022/03/18 07:22:59;;;;;;;13.77;5.83;;;;;;;5.97;76.84;102377.56;5089065;28;20170;-61
2022/03/18 07:25:24;;;;;;;10.87;5.63;;;;;;;6.05;75.99;102383.53;5064576;28;20190;-61
2022/03/18 07:27:49;;;;;;;10.87;5.30;;;;;;;6.16;75.40;102388.66;5054424;28;20191;-63
2022/03/18 07:30:15;;;;;;;13.87;5.73;;;;;;;6.13;75.39;102386.97;5047148;28;20225;-61
2022/03/18 07:32:40;;;;;;;13.27;6.13;;;;;;;6.27;74.94;102376.72;5080053;28;20187;-60
2022/03/18 07:35:06;;;;;;;11.90;6.13;;;;;;;6.32;74.24;102376.75;5071923;28;20180;-60
2022/03/18 07:37:31;;;;;;;14.40;6.80;;;;;;;6.26;74.23;102381.84;5069961;28;20623;-60
2022/03/18 07:39:56;;;;;;;13.00;6.90;;;;;;;6.41;74.35;102378.44;5072132;28;20193;-61
2022/03/18 07:42:22;;;;;;;10.73;6.57;;;;;;;6.96;73.32;102377.50;5095639;28;20376;-61
2022/03/18 07:44:47;;;;;;;13.77;6.07;;;;;;;7.00;71.79;102376.63;5072212;28;20174;-62
2022/03/18 07:47:12;;;;;;;14.63;6.40;;;;;;;7.28;70.65;102373.97;5072468;28;20177;-63
2022/03/18 07:49:37;;;;;;;15.45;6.75;;;;;;;7.53;67.78;102384.97;5073814;28;20928;-58
2022/03/18 07:52:03;;;;;;;11.37;6.10;;;;;;;7.07;69.13;102388.56;5095327;28;20281;-60
2022/03/18 07:54:28;;;;;;;13.30;7.00;;;;;;;6.87;70.61;102400.53;5074392;28;20658;-60
2022/03/18 07:56:54;;;;;;;12.87;6.60;;;;;;;7.02;69.75;102387.72;5073273;28;20852;-60
2022/03/18 07:59:19;;;;;;;9.80;6.73;;;;;;;7.00;69.60;102388.59;5071752;28;20184;-60
2022/03/18 08:01:45;;;;;;;10.37;7.53;;;;;;;7.14;69.60;102391.09;5050862;28;20693;-61
2022/03/18 08:04:12;;;;;;;13.17;7.83;;;;;;;7.49;67.61;102390.97;5072123;28;20266;-59
2022/03/18 08:06:38;;;;;;;15.87;7.37;;;;;;;7.21;68.17;102393.63;5072012;28;20169;-59
2022/03/18 08:09:04;;;;;;;11.87;6.50;;;;;;;7.44;66.98;102395.22;5073552;28;20225;-61
2022/03/18 08:11:29;;;;;;;10.97;6.77;;;;;;;7.52;67.03;102406.31;5063945;28;20236;-61
2022/03/18 08:13:54;;;;;;;10.47;6.53;;;;;;;7.83;64.37;102387.38;5072871;28;20192;-60
2022/03/18 08:16:22;;;;;;;12.10;6.03;;;;;;;8.28;61.53;102400.69;5052592;28;20718;-61
2022/03/18 08:18:47;;;;;;;9.63;6.30;;;;;;;8.05;62.18;102411.09;5084946;28;20172;-59
2022/03/18 08:21:14;;;;;;;12.83;6.70;;;;;;;7.81;63.10;102407.00;5075898;28;20265;-60
2022/03/18 08:23:41;;;;;;;12.33;6.73;;;;;;;7.78;64.35;102402.75;5066617;28;20545;-60
2022/03/18 08:26:06;;;;;;;11.83;6.70;;;;;;;8.07;62.10;102401.72;5072607;28;20260;-59
2022/03/18 08:28:31;;;;;;;13.23;7.03;;;;;;;7.75;63.23;102413.88;5073636;28;20663;-59
2022/03/18 08:30:56;;;;;;;13.27;6.40;;;;;;;7.66;63.50;102410.50;5031062;28;20235;-58
2022/03/18 08:33:24;;;;;;;12.47;6.50;;;;;;;7.49;63.40;102415.72;5050761;28;20197;-58
2022/03/18 08:35:50;;;;;;;14.27;7.17;;;;;;;7.45;64.30;102419.16;5051299;28;20255;-61
2022/03/18 08:38:15;;;;;;;14.83;7.57;;;;;;;7.48;62.88;102419.13;5059877;28;20641;-60
2022/03/18 08:40:40;;;;;;;10.87;6.30;;;;;;;7.34;62.11;102426.88;5072874;28;20218;-60
2022/03/18 08:43:09;;;;;;;15.10;7.63;;;;;;;7.54;62.25;102422.53;5084695;28;20189;-60
2022/03/18 08:45:35;;;;;;;12.17;7.47;;;;;;;7.61;61.49;102425.06;5052688;28;20269;-61
2022/03/18 08:48:01;;;;;;;17.80;6.40;;;;;;;7.51;61.18;102429.38;5052728;28;20180;-60
2022/03/18 08:50:27;;;;;;;13.30;5.87;;;;;;;7.44;61.08;102436.22;5047261;28;20306;-60
2022/03/18 08:52:54;;;;;;;12.20;6.50;;;;;;;7.45;60.11;102429.41;5089660;28;20246;-59
2022/03/18 08:55:20;;;;;;;10.20;5.97;;;;;;;7.79;60.58;102427.53;5071423;28;20168;-58
2022/03/18 08:57:46;;;;;;;10.73;5.30;;;;;;;8.29;57.52;102435.75;5071201;28;20212;-58
2022/03/18 09:00:17;;;;;;;9.37;5.53;;;;;;;9.03;55.46;102432.53;5061661;28;20247;-58
2022/03/18 09:02:43;;;;;;;9.83;5.07;;;;;;;9.23;52.00;102425.47;5085860;28;20175;-59
2022/03/18 09:05:10;;;;;;;8.90;4.77;;;;;;;8.58;52.53;102424.41;5070867;28;20587;-59
2022/03/18 09:07:37;;;;;;;10.17;6.20;;;;;;;8.72;53.00;102430.28;5071177;28;20169;-59
2022/03/18 09:10:04;;;;;;;7.00;5.37;;;;;;;8.93;51.89;102430.94;5065718;28;20237;-59
2022/03/18 09:12:29;;;;;;;8.20;4.63;;;;;;;9.06;51.09;102431.66;5102976;28;20240;-58
2022/03/18 09:14:54;;;;;;;8.13;4.87;;;;;;;9.23;49.60;102435.75;5071244;28;20279;-57
2022/03/18 09:17:21;;;;;;;7.10;3.93;;;;;;;9.52;48.82;102430.25;5061909;28;20235;-60
2022/03/18 09:19:46;;;;;;;8.33;4.73;;;;;;;10.34;47.50;102427.38;5050912;28;20176;-59
2022/03/18 09:22:13;;;;;;;6.43;3.80;;;;;;;10.39;44.98;102441.91;5081466;28;20223;-58
2022/03/18 09:24:38;;;;;;;9.57;4.03;;;;;;;10.04;45.74;102431.25;5072108;28;20608;-59
2022/03/18 09:27:04;;;;;;;11.13;4.67;;;;;;;9.58;46.03;102443.03;5072222;28;20180;-58
2022/03/18 09:29:30;;;;;;;8.30;4.43;;;;;;;9.46;46.41;102433.75;5062934;28;20259;-61
2022/03/18 09:31:56;;;;;;;9.90;4.67;;;;;;;9.16;46.68;102447.81;5059637;28;20727;-58
2022/03/18 09:34:24;;;;;;;7.80;3.47;;;;;;;9.01;46.93;102444.53;5069064;28;20566;-57
2022/03/18 09:36:51;;;;;;;7.43;3.87;;;;;;;8.87;46.95;102449.81;5067290;28;20185;-57
2022/03/18 09:39:17;;;;;;;6.20;3.93;;;;;;;8.62;47.69;102454.31;5057531;28;20255;-58
2022/03/18 09:41:42;;;;;;;8.43;3.63;;;;;;;8.92;47.97;102451.47;5073235;28;20319;-58
2022/03/18 09:44:10;;;;;;;8.70;3.27;;;;;;;8.77;46.17;102455.91;5071688;28;20189;-58
2022/03/18 09:46:36;;;;;;;7.90;3.67;;;;;;;8.54;46.53;102449.25;5057730;28;20204;-58
2022/03/18 09:49:01;;;;;;;7.47;3.90;;;;;;;8.71;46.10;102451.66;5050540;28;20173;-58
2022/03/18 09:51:28;;;;;;;5.47;3.80;;;;;;;8.81;46.21;102455.00;5065358;28;20246;-58
2022/03/18 09:53:53;;;;;;;7.40;3.50;;;;;;;8.98;45.92;102456.53;5074404;28;20223;-58
2022/03/18 09:56:18;;;;;;;6.10;3.70;;;;;;;9.04;45.41;102453.91;5070981;28;20180;-58
2022/03/18 09:58:44;;;;;;;7.80;3.30;;;;;;;9.00;45.98;102450.53;5071154;28;20572;-57
2022/03/18 10:01:09;;;;;;;7.73;4.13;;;;;;;9.30;45.19;102440.81;5078282;28;20518;-57
2022/03/18 10:03:40;;;;;;;8.07;3.60;;;;;;;9.31;44.86;102441.66;5085145;28;20176;-57
2022/03/18 10:06:06;;;;;;;7.67;3.30;;;;;;;9.30;45.39;102451.09;5069776;28;20216;-57
2022/03/18 10:08:35;;;;;;;4.30;3.40;;;;;;;9.41;44.84;102447.53;5071270;28;20181;-58
2022/03/18 10:11:26;;;;;;;9.63;4.00;;;;;;;9.51;44.61;102464.53;5062321;28;20238;-58
2022/03/18 10:13:53;;;;;;;5.70;3.63;;;;;;;9.25;44.57;102449.44;5071879;28;20258;-57
2022/03/18 10:16:37;;;;;;;8.43;3.60;;;;;;;8.80;44.59;102458.44;5068296;28;20208;-57
2022/03/18 10:19:06;;;;;;;8.73;4.50;;;;;;;8.74;44.93;102467.91;5057956;28;20185;-59
2022/03/18 10:21:33;;;;;;;7.23;3.70;;;;;;;8.84;44.94;102455.00;5072920;28;20704;-58
2022/03/18 10:24:07;;;;;;;10.52;4.18;;;;;;;8.66;45.39;102461.13;5061890;28;20419;-57
2022/03/18 10:26:37;;;;;;;7.20;3.23;;;;;;;8.54;46.07;102446.66;5063342;28;20173;-57
2022/03/18 10:29:04;;;;;;;7.17;3.73;;;;;;;8.27;45.95;102462.25;5051801;28;20520;-58
2022/03/18 10:31:30;;;;;;;6.43;3.10;;;;;;;8.27;45.92;102464.81;5054809;28;20285;-59
2022/03/18 10:39:32;;;;;;;4.77;2.67;;;;;;;8.85;44.31;102464.38;5051477;28;20891;-58
2022/03/18 10:42:02;;;;;;;6.33;3.17;;;;;;;8.59;44.55;102462.03;5058148;28;20369;-57
2022/03/18 10:44:52;;;;;;;4.10;2.87;;;;;;;8.06;45.01;102464.97;5055907;28;20205;-60
2022/03/18 10:47:40;;;;;;;6.67;3.10;;;;;;;8.15;45.59;102468.31;5049132;28;20192;-59
2022/03/18 10:50:09;;;;;;;6.23;2.97;;;;;;;8.40;44.71;102471.56;5041203;28;20182;-57
2022/03/18 10:52:35;;;;;;;6.33;2.93;;;;;;;8.38;44.82;102470.72;5091576;28;20184;-58
2022/03/18 10:55:22;;;;;;;5.90;3.00;;;;;;;8.45;44.56;102472.38;5071148;28;20642;-59
2022/03/18 10:57:55;;;;;;;5.23;2.80;;;;;;;8.44;43.99;102467.28;5058344;28;20178;-59
2022/03/18 11:00:23;;;;;;;9.17;3.77;;;;;;;8.46;43.93;102461.28;5044471;28;20182;-59
2022/03/18 11:02:51;;;;;;;11.97;3.57;;;;;;;8.56;44.63;102472.34;5062930;28;20174;-59
2022/03/18 11:05:20;;;;;;;6.40;2.50;;;;;;;8.78;43.87;102461.88;5049667;28;20196;-57
2022/03/18 11:07:52;;;;;;;5.57;3.10;;;;;;;8.54;42.79;102472.31;5049386;28;20610;-59
2022/03/18 11:13:04;;;;;;;4.17;2.83;;;;;;;8.80;42.74;102461.00;5083864;28;20579;-59
2022/03/18 11:15:31;;;;;;;6.37;2.43;;;;;;;8.96;41.88;102453.16;5059672;28;20197;-58
2022/03/18 11:17:57;;;;;;;8.97;3.63;;;;;;;9.07;41.94;102448.75;5053759;28;20178;-58
2022/03/18 11:20:27;;;;;;;7.00;3.70;;;;;;;9.16;42.07;102456.34;5047970;28;20221;-57
2022/03/18 11:22:52;;;;;;;6.17;3.30;;;;;;;9.27;42.42;102463.09;5079403;28;20611;-57
2022/03/18 11:25:19;;;;;;;7.40;4.00;;;;;;;9.03;43.48;102468.47;5073636;28;20405;-57
2022/03/18 11:27:46;;;;;;;7.97;4.03;;;;;;;9.15;43.01;102462.38;5072496;28;20830;-58
2022/03/18 11:30:24;;;;;;;8.17;3.33;;;;;;;9.18;42.32;102459.75;5063045;28;20238;-57
2022/03/18 11:33:09;;;;;;;4.60;3.30;;;;;;;9.27;42.11;102453.69;5079798;28;20205;-57
2022/03/18 11:35:53;;;;;;;6.53;3.83;;;;;;;9.49;41.76;102453.44;5055629;28;20210;-57
2022/03/18 11:38:23;;;;;;;7.23;3.83;;;;;;;9.48;42.88;102454.31;5073601;28;20647;-57
2022/03/18 11:40:58;;;;;;;4.37;2.90;;;;;;;9.36;41.95;102470.69;5072071;28;20263;-58
2022/03/18 11:43:42;;;;;;;6.97;3.13;;;;;;;9.42;41.60;102462.91;5081001;28;20242;-58
2022/03/18 11:46:13;;;;;;;5.43;3.00;;;;;;;9.65;41.59;102470.34;5071582;28;20181;-58
2022/03/18 11:49:18;;;;;;;5.77;3.60;;;;;;;9.80;42.02;102473.59;5073959;28;20173;-57
2022/03/18 11:51:58;;;;;;;5.63;3.47;;;;;;;9.84;42.54;102460.66;4981647;28;20243;-57